sensor_id;sensor_type;location;lat;lon;timestamp;P1;durP1;ratioP1;P2;durP2;ratioP2
20488;SDS011;10403;54.092;12.122;2023-11-19T00:00:08;9.67;;;6.40;;
20488;SDS011;10403;54.092;12.122;2023-11-19T00:02:40;9.77;;;6.27;;
20488;SDS011;10403;54.092;12.122;2023-11-19T00:05:09;16.73;;;7.30;;
20488;SDS011;10403;54.092;12.122;2023-11-19T00:07:40;9.83;;;6.47;;
20488;SDS011;10403;54.092;12.122;2023-11-19T00:10:09;10.47;;;7.27;;
20488;SDS011;10403;54.092;12.122;2023-11-19T00:12:45;11.97;;;6.63;;
20488;SDS011;10403;54.092;12.122;2023-11-19T00:15:15;14.90;;;7.50;;
20488;SDS011;10403;54.092;12.122;2023-11-19T00:17:45;10.83;;;7.53;;
20488;SDS011;10403;54.092;12.122;2023-11-19T00:20:16;12.33;;;7.17;;
20488;SDS011;10403;54.092;12.122;2023-11-19T00:22:46;11.87;;;6.90;;
20488;SDS011;10403;54.092;12.122;2023-11-19T00:25:16;9.17;;;6.63;;
20488;SDS011;10403;54.092;12.122;2023-11-19T00:27:45;11.73;;;7.50;;
20488;SDS011;10403;54.092;12.122;2023-11-19T00:30:12;11.03;;;6.90;;
20488;SDS011;10403;54.092;12.122;2023-11-19T00:32:41;10.43;;;7.60;;
20488;SDS011;10403;54.092;12.122;2023-11-19T00:35:09;10.43;;;7.67;;
20488;SDS011;10403;54.092;12.122;2023-11-19T00:37:37;11.77;;;7.30;;
20488;SDS011;10403;54.092;12.122;2023-11-19T00:40:04;10.40;;;7.77;;
20488;SDS011;10403;54.092;12.122;2023-11-19T00:42:32;12.50;;;7.90;;
20488;SDS011;10403;54.092;12.122;2023-11-19T00:45:00;10.47;;;7.10;;
20488;SDS011;10403;54.092;12.122;2023-11-19T00:47:28;10.77;;;6.83;;
20488;SDS011;10403;54.092;12.122;2023-11-19T00:49:56;9.97;;;7.33;;
20488;SDS011;10403;54.092;12.122;2023-11-19T00:52:23;9.93;;;7.13;;
20488;SDS011;10403;54.092;12.122;2023-11-19T00:54:51;9.10;;;6.83;;
20488;SDS011;10403;54.092;12.122;2023-11-19T00:57:18;10.27;;;7.13;;
20488;SDS011;10403;54.092;12.122;2023-11-19T00:59:45;9.20;;;6.70;;
20488;SDS011;10403;54.092;12.122;2023-11-19T01:02:13;10.10;;;6.70;;
20488;SDS011;10403;54.092;12.122;2023-11-19T01:04:41;12.33;;;7.20;;
20488;SDS011;10403;54.092;12.122;2023-11-19T01:07:09;12.37;;;7.37;;
20488;SDS011;10403;54.092;12.122;2023-11-19T01:09:41;10.67;;;6.60;;
20488;SDS011;10403;54.092;12.122;2023-11-19T01:12:09;11.83;;;6.87;;
20488;SDS011;10403;54.092;12.122;2023-11-19T01:14:37;10.87;;;7.67;;
20488;SDS011;10403;54.092;12.122;2023-11-19T01:17:04;12.37;;;6.80;;
20488;SDS011;10403;54.092;12.122;2023-11-19T01:19:32;10.30;;;6.83;;
20488;SDS011;10403;54.092;12.122;2023-11-19T01:22:00;14.27;;;7.10;;
20488;SDS011;10403;54.092;12.122;2023-11-19T01:24:27;12.67;;;7.93;;
20488;SDS011;10403;54.092;12.122;2023-11-19T01:26:55;9.73;;;6.90;;
20488;SDS011;10403;54.092;12.122;2023-11-19T01:29:24;10.20;;;7.30;;
20488;SDS011;10403;54.092;12.122;2023-11-19T01:31:51;14.80;;;7.30;;
20488;SDS011;10403;54.092;12.122;2023-11-19T01:34:19;16.73;;;6.80;;
20488;SDS011;10403;54.092;12.122;2023-11-19T01:36:46;10.97;;;6.47;;
20488;SDS011;10403;54.092;12.122;2023-11-19T01:39:15;10.60;;;7.20;;
20488;SDS011;10403;54.092;12.122;2023-11-19T01:41:43;9.73;;;6.67;;
20488;SDS011;10403;54.092;12.122;2023-11-19T01:44:10;9.10;;;6.90;;
20488;SDS011;10403;54.092;12.122;2023-11-19T01:46:40;11.27;;;7.33;;
20488;SDS011;10403;54.092;12.122;2023-11-19T01:49:12;8.97;;;7.20;;
20488;SDS011;10403;54.092;12.122;2023-11-19T01:51:42;10.37;;;7.10;;
20488;SDS011;10403;54.092;12.122;2023-11-19T01:54:09;8.90;;;6.60;;
20488;SDS011;10403;54.092;12.122;2023-11-19T01:56:38;9.37;;;6.67;;
20488;SDS011;10403;54.092;12.122;2023-11-19T01:59:07;9.83;;;6.73;;
20488;SDS011;10403;54.092;12.122;2023-11-19T02:01:37;9.50;;;6.73;;
20488;SDS011;10403;54.092;12.122;2023-11-19T02:04:07;10.53;;;6.07;;
20488;SDS011;10403;54.092;12.122;2023-11-19T02:06:40;8.20;;;6.73;;
20488;SDS011;10403;54.092;12.122;2023-11-19T02:09:08;8.07;;;6.27;;
20488;SDS011;10403;54.092;12.122;2023-11-19T02:11:36;10.23;;;6.37;;
20488;SDS011;10403;54.092;12.122;2023-11-19T02:14:06;8.67;;;6.23;;
20488;SDS011;10403;54.092;12.122;2023-11-19T02:16:34;12.80;;;6.73;;
20488;SDS011;10403;54.092;12.122;2023-11-19T02:19:01;9.70;;;6.47;;
20488;SDS011;10403;54.092;12.122;2023-11-19T02:21:29;18.50;;;6.87;;
20488;SDS011;10403;54.092;12.122;2023-11-19T02:23:56;8.27;;;6.27;;
20488;SDS011;10403;54.092;12.122;2023-11-19T02:29:28;7.87;;;6.10;;
20488;SDS011;10403;54.092;12.122;2023-11-19T02:31:55;8.50;;;5.93;;
20488;SDS011;10403;54.092;12.122;2023-11-19T02:34:23;9.03;;;6.40;;
20488;SDS011;10403;54.092;12.122;2023-11-19T02:36:50;9.73;;;6.03;;
20488;SDS011;10403;54.092;12.122;2023-11-19T02:39:17;9.67;;;7.00;;
20488;SDS011;10403;54.092;12.122;2023-11-19T02:41:48;8.03;;;6.30;;
20488;SDS011;10403;54.092;12.122;2023-11-19T02:44:19;8.87;;;6.53;;
20488;SDS011;10403;54.092;12.122;2023-11-19T02:46:46;9.03;;;6.70;;
20488;SDS011;10403;54.092;12.122;2023-11-19T02:49:14;11.37;;;6.60;;
20488;SDS011;10403;54.092;12.122;2023-11-19T02:51:42;9.03;;;6.50;;
20488;SDS011;10403;54.092;12.122;2023-11-19T02:54:09;10.17;;;6.60;;
20488;SDS011;10403;54.092;12.122;2023-11-19T02:56:36;7.80;;;6.20;;
20488;SDS011;10403;54.092;12.122;2023-11-19T02:59:05;8.50;;;6.13;;
20488;SDS011;10403;54.092;12.122;2023-11-19T03:01:41;12.60;;;6.50;;
20488;SDS011;10403;54.092;12.122;2023-11-19T03:04:10;11.23;;;6.37;;
20488;SDS011;10403;54.092;12.122;2023-11-19T03:06:39;9.73;;;6.20;;
20488;SDS011;10403;54.092;12.122;2023-11-19T03:09:06;10.13;;;6.40;;
20488;SDS011;10403;54.092;12.122;2023-11-19T03:11:37;11.03;;;6.33;;
20488;SDS011;10403;54.092;12.122;2023-11-19T03:14:04;11.77;;;6.30;;
20488;SDS011;10403;54.092;12.122;2023-11-19T03:16:31;11.60;;;6.27;;
20488;SDS011;10403;54.092;12.122;2023-11-19T03:18:59;10.00;;;7.13;;
20488;SDS011;10403;54.092;12.122;2023-11-19T03:21:29;8.77;;;6.40;;
20488;SDS011;10403;54.092;12.122;2023-11-19T03:23:58;12.53;;;6.13;;
20488;SDS011;10403;54.092;12.122;2023-11-19T03:26:27;11.17;;;6.93;;
20488;SDS011;10403;54.092;12.122;2023-11-19T03:28:55;11.40;;;7.13;;
20488;SDS011;10403;54.092;12.122;2023-11-19T03:31:23;9.23;;;6.43;;
20488;SDS011;10403;54.092;12.122;2023-11-19T03:33:51;13.13;;;6.87;;
20488;SDS011;10403;54.092;12.122;2023-11-19T03:36:20;9.80;;;6.80;;
20488;SDS011;10403;54.092;12.122;2023-11-19T03:38:48;10.73;;;7.10;;
20488;SDS011;10403;54.092;12.122;2023-11-19T03:41:34;11.77;;;7.03;;
20488;SDS011;10403;54.092;12.122;2023-11-19T03:44:04;10.27;;;7.10;;
20488;SDS011;10403;54.092;12.122;2023-11-19T03:46:32;14.53;;;7.43;;
20488;SDS011;10403;54.092;12.122;2023-11-19T03:48:59;10.63;;;7.80;;
20488;SDS011;10403;54.092;12.122;2023-11-19T03:51:26;11.00;;;6.97;;
20488;SDS011;10403;54.092;12.122;2023-11-19T03:53:53;8.93;;;6.63;;
20488;SDS011;10403;54.092;12.122;2023-11-19T03:56:21;10.57;;;7.50;;
20488;SDS011;10403;54.092;12.122;2023-11-19T03:58:49;9.53;;;7.30;;
20488;SDS011;10403;54.092;12.122;2023-11-19T04:09:09;12.20;;;7.83;;
20488;SDS011;10403;54.092;12.122;2023-11-19T04:11:36;8.90;;;6.47;;
20488;SDS011;10403;54.092;12.122;2023-11-19T04:14:03;12.73;;;8.00;;
20488;SDS011;10403;54.092;12.122;2023-11-19T04:16:31;10.67;;;7.20;;
20488;SDS011;10403;54.092;12.122;2023-11-19T04:18:58;9.77;;;7.00;;
20488;SDS011;10403;54.092;12.122;2023-11-19T04:21:25;10.97;;;7.17;;
20488;SDS011;10403;54.092;12.122;2023-11-19T04:23:53;10.00;;;6.53;;
20488;SDS011;10403;54.092;12.122;2023-11-19T04:26:20;10.03;;;6.93;;
20488;SDS011;10403;54.092;12.122;2023-11-19T04:28:48;11.07;;;7.27;;
20488;SDS011;10403;54.092;12.122;2023-11-19T04:31:15;9.10;;;6.77;;
20488;SDS011;10403;54.092;12.122;2023-11-19T04:33:43;11.80;;;6.83;;
20488;SDS011;10403;54.092;12.122;2023-11-19T04:36:10;9.33;;;6.37;;
20488;SDS011;10403;54.092;12.122;2023-11-19T04:38:38;13.00;;;6.57;;
20488;SDS011;10403;54.092;12.122;2023-11-19T04:41:05;8.53;;;6.30;;
20488;SDS011;10403;54.092;12.122;2023-11-19T04:43:33;8.47;;;6.20;;
20488;SDS011;10403;54.092;12.122;2023-11-19T04:46:00;7.70;;;5.73;;
20488;SDS011;10403;54.092;12.122;2023-11-19T04:48:31;6.73;;;5.97;;
20488;SDS011;10403;54.092;12.122;2023-11-19T04:51:07;8.73;;;5.83;;
20488;SDS011;10403;54.092;12.122;2023-11-19T04:53:37;13.17;;;7.27;;
20488;SDS011;10403;54.092;12.122;2023-11-19T04:56:11;7.83;;;5.63;;
20488;SDS011;10403;54.092;12.122;2023-11-19T04:58:39;11.20;;;5.80;;
20488;SDS011;10403;54.092;12.122;2023-11-19T05:01:12;7.27;;;5.47;;
20488;SDS011;10403;54.092;12.122;2023-11-19T05:03:43;9.17;;;5.93;;
20488;SDS011;10403;54.092;12.122;2023-11-19T05:06:12;9.47;;;5.20;;
20488;SDS011;10403;54.092;12.122;2023-11-19T05:08:39;7.53;;;4.90;;
20488;SDS011;10403;54.092;12.122;2023-11-19T05:11:06;6.03;;;4.87;;
20488;SDS011;10403;54.092;12.122;2023-11-19T05:13:33;8.37;;;5.00;;
20488;SDS011;10403;54.092;12.122;2023-11-19T05:16:00;5.67;;;4.80;;
20488;SDS011;10403;54.092;12.122;2023-11-19T05:18:28;6.00;;;4.70;;
20488;SDS011;10403;54.092;12.122;2023-11-19T05:20:55;6.33;;;4.67;;
20488;SDS011;10403;54.092;12.122;2023-11-19T05:23:22;5.90;;;4.80;;
20488;SDS011;10403;54.092;12.122;2023-11-19T05:25:49;5.73;;;4.60;;
20488;SDS011;10403;54.092;12.122;2023-11-19T05:28:16;5.17;;;4.20;;
20488;SDS011;10403;54.092;12.122;2023-11-19T05:30:43;6.57;;;4.67;;
20488;SDS011;10403;54.092;12.122;2023-11-19T05:33:11;6.17;;;4.30;;
20488;SDS011;10403;54.092;12.122;2023-11-19T05:35:38;4.70;;;4.20;;
20488;SDS011;10403;54.092;12.122;2023-11-19T05:38:05;5.07;;;3.97;;
20488;SDS011;10403;54.092;12.122;2023-11-19T05:40:32;5.40;;;4.40;;
20488;SDS011;10403;54.092;12.122;2023-11-19T05:42:59;6.83;;;4.30;;
20488;SDS011;10403;54.092;12.122;2023-11-19T05:45:27;5.83;;;4.00;;
20488;SDS011;10403;54.092;12.122;2023-11-19T05:47:54;6.17;;;4.40;;
20488;SDS011;10403;54.092;12.122;2023-11-19T05:50:21;4.53;;;4.00;;
20488;SDS011;10403;54.092;12.122;2023-11-19T05:52:48;5.73;;;4.13;;
20488;SDS011;10403;54.092;12.122;2023-11-19T05:55:16;5.27;;;4.20;;
20488;SDS011;10403;54.092;12.122;2023-11-19T05:57:43;5.00;;;3.67;;
20488;SDS011;10403;54.092;12.122;2023-11-19T06:00:13;4.23;;;3.70;;
20488;SDS011;10403;54.092;12.122;2023-11-19T06:02:42;5.20;;;3.97;;
20488;SDS011;10403;54.092;12.122;2023-11-19T06:05:09;6.17;;;3.90;;
20488;SDS011;10403;54.092;12.122;2023-11-19T06:07:36;7.57;;;4.03;;
20488;SDS011;10403;54.092;12.122;2023-11-19T06:10:05;4.27;;;3.57;;
20488;SDS011;10403;54.092;12.122;2023-11-19T06:12:36;5.37;;;3.60;;
20488;SDS011;10403;54.092;12.122;2023-11-19T06:15:05;4.17;;;3.47;;
20488;SDS011;10403;54.092;12.122;2023-11-19T06:17:34;3.80;;;3.20;;
20488;SDS011;10403;54.092;12.122;2023-11-19T06:20:03;3.50;;;2.90;;
20488;SDS011;10403;54.092;12.122;2023-11-19T06:22:31;5.27;;;3.30;;
20488;SDS011;10403;54.092;12.122;2023-11-19T06:24:59;3.97;;;2.90;;
20488;SDS011;10403;54.092;12.122;2023-11-19T06:27:26;3.53;;;2.90;;
20488;SDS011;10403;54.092;12.122;2023-11-19T06:29:53;5.33;;;3.40;;
20488;SDS011;10403;54.092;12.122;2023-11-19T06:32:21;3.77;;;3.20;;
20488;SDS011;10403;54.092;12.122;2023-11-19T06:34:48;3.33;;;2.87;;
20488;SDS011;10403;54.092;12.122;2023-11-19T06:37:15;3.43;;;3.00;;
20488;SDS011;10403;54.092;12.122;2023-11-19T06:39:42;3.83;;;2.90;;
20488;SDS011;10403;54.092;12.122;2023-11-19T06:42:09;3.23;;;2.63;;
20488;SDS011;10403;54.092;12.122;2023-11-19T06:44:37;3.70;;;3.13;;
20488;SDS011;10403;54.092;12.122;2023-11-19T06:47:04;4.50;;;3.20;;
20488;SDS011;10403;54.092;12.122;2023-11-19T06:49:32;6.50;;;3.10;;
20488;SDS011;10403;54.092;12.122;2023-11-19T06:52:00;3.27;;;2.67;;
20488;SDS011;10403;54.092;12.122;2023-11-19T06:54:27;3.90;;;2.90;;
20488;SDS011;10403;54.092;12.122;2023-11-19T06:56:54;3.50;;;2.87;;
20488;SDS011;10403;54.092;12.122;2023-11-19T06:59:21;4.10;;;2.93;;
20488;SDS011;10403;54.092;12.122;2023-11-19T07:01:48;3.77;;;2.90;;
20488;SDS011;10403;54.092;12.122;2023-11-19T07:04:16;3.73;;;3.13;;
20488;SDS011;10403;54.092;12.122;2023-11-19T07:06:43;4.00;;;2.90;;
20488;SDS011;10403;54.092;12.122;2023-11-19T07:09:10;3.50;;;2.77;;
20488;SDS011;10403;54.092;12.122;2023-11-19T07:11:41;4.90;;;2.93;;
20488;SDS011;10403;54.092;12.122;2023-11-19T07:14:08;3.20;;;2.70;;
20488;SDS011;10403;54.092;12.122;2023-11-19T07:16:36;3.73;;;2.87;;
20488;SDS011;10403;54.092;12.122;2023-11-19T07:19:04;5.13;;;2.80;;
20488;SDS011;10403;54.092;12.122;2023-11-19T07:21:32;4.77;;;3.00;;
20488;SDS011;10403;54.092;12.122;2023-11-19T07:24:00;5.33;;;3.30;;
20488;SDS011;10403;54.092;12.122;2023-11-19T07:26:28;4.60;;;3.50;;
20488;SDS011;10403;54.092;12.122;2023-11-19T07:28:56;4.07;;;2.60;;
20488;SDS011;10403;54.092;12.122;2023-11-19T07:31:23;3.80;;;3.13;;
20488;SDS011;10403;54.092;12.122;2023-11-19T07:33:50;3.70;;;2.70;;
20488;SDS011;10403;54.092;12.122;2023-11-19T07:36:18;3.13;;;2.83;;
20488;SDS011;10403;54.092;12.122;2023-11-19T07:38:45;2.97;;;2.63;;
20488;SDS011;10403;54.092;12.122;2023-11-19T07:41:14;4.17;;;3.20;;
20488;SDS011;10403;54.092;12.122;2023-11-19T07:43:45;3.33;;;2.80;;
20488;SDS011;10403;54.092;12.122;2023-11-19T07:46:17;3.87;;;2.70;;
20488;SDS011;10403;54.092;12.122;2023-11-19T07:48:47;4.13;;;2.80;;
20488;SDS011;10403;54.092;12.122;2023-11-19T07:51:14;5.43;;;2.73;;
20488;SDS011;10403;54.092;12.122;2023-11-19T07:53:42;3.33;;;2.80;;
20488;SDS011;10403;54.092;12.122;2023-11-19T07:56:09;3.30;;;2.90;;
20488;SDS011;10403;54.092;12.122;2023-11-19T07:58:37;3.10;;;2.50;;
20488;SDS011;10403;54.092;12.122;2023-11-19T08:01:04;3.63;;;2.97;;
20488;SDS011;10403;54.092;12.122;2023-11-19T08:03:32;4.43;;;2.67;;
20488;SDS011;10403;54.092;12.122;2023-11-19T08:06:03;3.13;;;2.50;;
20488;SDS011;10403;54.092;12.122;2023-11-19T08:08:31;3.20;;;2.70;;
20488;SDS011;10403;54.092;12.122;2023-11-19T08:11:00;4.03;;;2.63;;
20488;SDS011;10403;54.092;12.122;2023-11-19T08:13:27;3.30;;;2.90;;
20488;SDS011;10403;54.092;12.122;2023-11-19T08:15:54;2.80;;;2.00;;
20488;SDS011;10403;54.092;12.122;2023-11-19T08:18:21;2.47;;;2.23;;
20488;SDS011;10403;54.092;12.122;2023-11-19T08:20:49;3.23;;;2.57;;
20488;SDS011;10403;54.092;12.122;2023-11-19T08:23:20;2.00;;;1.80;;
20488;SDS011;10403;54.092;12.122;2023-11-19T08:25:47;2.27;;;1.93;;
20488;SDS011;10403;54.092;12.122;2023-11-19T08:28:14;2.23;;;1.87;;
20488;SDS011;10403;54.092;12.122;2023-11-19T08:30:41;4.53;;;1.90;;
20488;SDS011;10403;54.092;12.122;2023-11-19T08:33:10;2.20;;;1.83;;
20488;SDS011;10403;54.092;12.122;2023-11-19T08:35:38;2.17;;;1.90;;
20488;SDS011;10403;54.092;12.122;2023-11-19T08:38:05;2.17;;;1.97;;
20488;SDS011;10403;54.092;12.122;2023-11-19T08:40:32;2.10;;;1.90;;
20488;SDS011;10403;54.092;12.122;2023-11-19T08:42:59;3.50;;;1.87;;
20488;SDS011;10403;54.092;12.122;2023-11-19T08:45:27;2.50;;;2.10;;
20488;SDS011;10403;54.092;12.122;2023-11-19T08:47:54;4.50;;;1.90;;
20488;SDS011;10403;54.092;12.122;2023-11-19T08:50:21;2.33;;;1.83;;
20488;SDS011;10403;54.092;12.122;2023-11-19T08:52:49;2.63;;;1.87;;
20488;SDS011;10403;54.092;12.122;2023-11-19T08:55:16;3.43;;;1.93;;
20488;SDS011;10403;54.092;12.122;2023-11-19T08:57:43;2.47;;;2.10;;
20488;SDS011;10403;54.092;12.122;2023-11-19T09:00:11;2.37;;;1.93;;
20488;SDS011;10403;54.092;12.122;2023-11-19T09:02:40;2.37;;;1.93;;
20488;SDS011;10403;54.092;12.122;2023-11-19T09:05:09;3.97;;;2.40;;
20488;SDS011;10403;54.092;12.122;2023-11-19T09:07:36;3.93;;;2.30;;
20488;SDS011;10403;54.092;12.122;2023-11-19T09:10:04;3.87;;;2.20;;
20488;SDS011;10403;54.092;12.122;2023-11-19T09:12:32;2.23;;;1.47;;
20488;SDS011;10403;54.092;12.122;2023-11-19T09:14:59;3.20;;;2.30;;
20488;SDS011;10403;54.092;12.122;2023-11-19T09:17:26;2.57;;;2.10;;
20488;SDS011;10403;54.092;12.122;2023-11-19T09:19:53;3.10;;;2.17;;
20488;SDS011;10403;54.092;12.122;2023-11-19T09:22:20;3.87;;;1.80;;
20488;SDS011;10403;54.092;12.122;2023-11-19T09:24:47;2.40;;;2.00;;
20488;SDS011;10403;54.092;12.122;2023-11-19T09:27:15;1.90;;;1.70;;
20488;SDS011;10403;54.092;12.122;2023-11-19T09:29:42;3.07;;;2.10;;
20488;SDS011;10403;54.092;12.122;2023-11-19T09:32:09;1.97;;;1.73;;
20488;SDS011;10403;54.092;12.122;2023-11-19T09:34:36;2.73;;;2.13;;
20488;SDS011;10403;54.092;12.122;2023-11-19T09:37:04;3.73;;;2.47;;
20488;SDS011;10403;54.092;12.122;2023-11-19T09:39:47;2.97;;;2.57;;
20488;SDS011;10403;54.092;12.122;2023-11-19T09:42:14;3.10;;;2.40;;
20488;SDS011;10403;54.092;12.122;2023-11-19T09:44:42;6.30;;;2.10;;
20488;SDS011;10403;54.092;12.122;2023-11-19T09:47:11;2.67;;;2.07;;
20488;SDS011;10403;54.092;12.122;2023-11-19T09:49:40;2.23;;;1.80;;
20488;SDS011;10403;54.092;12.122;2023-11-19T09:52:07;4.10;;;2.10;;
20488;SDS011;10403;54.092;12.122;2023-11-19T09:54:35;2.27;;;1.97;;
20488;SDS011;10403;54.092;12.122;2023-11-19T09:57:02;4.23;;;2.00;;
20488;SDS011;10403;54.092;12.122;2023-11-19T09:59:32;3.17;;;2.40;;
20488;SDS011;10403;54.092;12.122;2023-11-19T10:02:00;2.40;;;1.70;;
20488;SDS011;10403;54.092;12.122;2023-11-19T10:04:29;4.73;;;2.80;;
20488;SDS011;10403;54.092;12.122;2023-11-19T10:06:59;3.33;;;2.40;;
20488;SDS011;10403;54.092;12.122;2023-11-19T10:09:26;2.73;;;1.90;;
20488;SDS011;10403;54.092;12.122;2023-11-19T10:11:53;3.87;;;2.50;;
20488;SDS011;10403;54.092;12.122;2023-11-19T10:14:22;3.17;;;2.37;;
20488;SDS011;10403;54.092;12.122;2023-11-19T10:16:50;5.07;;;2.63;;
20488;SDS011;10403;54.092;12.122;2023-11-19T10:19:21;4.20;;;2.40;;
20488;SDS011;10403;54.092;12.122;2023-11-19T10:21:48;4.37;;;2.63;;
20488;SDS011;10403;54.092;12.122;2023-11-19T10:24:15;4.17;;;2.83;;
20488;SDS011;10403;54.092;12.122;2023-11-19T10:26:45;6.80;;;3.13;;
20488;SDS011;10403;54.092;12.122;2023-11-19T10:29:13;6.17;;;3.27;;
20488;SDS011;10403;54.092;12.122;2023-11-19T10:31:41;4.47;;;3.10;;
20488;SDS011;10403;54.092;12.122;2023-11-19T10:34:43;4.87;;;3.03;;
20488;SDS011;10403;54.092;12.122;2023-11-19T10:37:29;18.53;;;4.97;;
20488;SDS011;10403;54.092;12.122;2023-11-19T10:39:59;7.03;;;3.37;;
20488;SDS011;10403;54.092;12.122;2023-11-19T10:42:26;6.53;;;3.43;;
20488;SDS011;10403;54.092;12.122;2023-11-19T10:44:53;6.83;;;4.00;;
20488;SDS011;10403;54.092;12.122;2023-11-19T10:47:20;6.67;;;3.40;;
20488;SDS011;10403;54.092;12.122;2023-11-19T10:49:53;6.30;;;3.77;;
20488;SDS011;10403;54.092;12.122;2023-11-19T10:52:20;6.43;;;4.07;;
20488;SDS011;10403;54.092;12.122;2023-11-19T10:54:49;8.00;;;3.47;;
20488;SDS011;10403;54.092;12.122;2023-11-19T10:57:20;7.57;;;3.83;;
20488;SDS011;10403;54.092;12.122;2023-11-19T10:59:48;5.87;;;3.87;;
20488;SDS011;10403;54.092;12.122;2023-11-19T11:02:22;8.67;;;4.33;;
20488;SDS011;10403;54.092;12.122;2023-11-19T11:04:53;11.10;;;4.33;;
20488;SDS011;10403;54.092;12.122;2023-11-19T11:07:21;9.43;;;3.97;;
20488;SDS011;10403;54.092;12.122;2023-11-19T11:10:02;8.40;;;4.53;;
20488;SDS011;10403;54.092;12.122;2023-11-19T11:12:33;9.97;;;4.63;;
20488;SDS011;10403;54.092;12.122;2023-11-19T11:15:04;14.57;;;4.73;;
20488;SDS011;10403;54.092;12.122;2023-11-19T11:17:34;13.57;;;4.87;;
20488;SDS011;10403;54.092;12.122;2023-11-19T11:20:03;15.33;;;5.13;;
20488;SDS011;10403;54.092;12.122;2023-11-19T11:22:33;16.37;;;5.50;;
20488;SDS011;10403;54.092;12.122;2023-11-19T11:25:37;14.27;;;5.37;;
20488;SDS011;10403;54.092;12.122;2023-11-19T11:28:33;24.13;;;6.87;;
20488;SDS011;10403;54.092;12.122;2023-11-19T11:34:29;17.30;;;6.17;;
20488;SDS011;10403;54.092;12.122;2023-11-19T11:40:21;18.23;;;5.73;;
20488;SDS011;10403;54.092;12.122;2023-11-19T11:42:50;29.70;;;5.70;;
20488;SDS011;10403;54.092;12.122;2023-11-19T11:45:35;17.53;;;5.70;;
20488;SDS011;10403;54.092;12.122;2023-11-19T11:48:16;24.77;;;5.50;;
20488;SDS011;10403;54.092;12.122;2023-11-19T11:50:50;22.53;;;5.30;;
20488;SDS011;10403;54.092;12.122;2023-11-19T11:53:23;23.43;;;5.90;;
20488;SDS011;10403;54.092;12.122;2023-11-19T11:55:53;20.00;;;5.33;;
20488;SDS011;10403;54.092;12.122;2023-11-19T11:58:26;27.23;;;5.47;;
20488;SDS011;10403;54.092;12.122;2023-11-19T12:00:58;26.50;;;5.60;;
20488;SDS011;10403;54.092;12.122;2023-11-19T12:03:28;29.93;;;5.30;;
20488;SDS011;10403;54.092;12.122;2023-11-19T12:05:57;18.83;;;4.97;;
20488;SDS011;10403;54.092;12.122;2023-11-19T12:08:26;22.67;;;4.47;;
20488;SDS011;10403;54.092;12.122;2023-11-19T12:10:56;32.90;;;4.97;;
20488;SDS011;10403;54.092;12.122;2023-11-19T12:13:29;28.90;;;6.13;;
20488;SDS011;10403;54.092;12.122;2023-11-19T12:16:22;20.67;;;4.47;;
20488;SDS011;10403;54.092;12.122;2023-11-19T12:18:50;27.97;;;5.03;;
20488;SDS011;10403;54.092;12.122;2023-11-19T12:21:27;25.27;;;4.50;;
20488;SDS011;10403;54.092;12.122;2023-11-19T12:23:57;23.40;;;4.50;;
20488;SDS011;10403;54.092;12.122;2023-11-19T12:26:33;33.53;;;5.00;;
20488;SDS011;10403;54.092;12.122;2023-11-19T12:29:03;33.10;;;4.83;;
20488;SDS011;10403;54.092;12.122;2023-11-19T12:31:35;27.27;;;5.10;;
20488;SDS011;10403;54.092;12.122;2023-11-19T12:34:06;26.87;;;5.43;;
20488;SDS011;10403;54.092;12.122;2023-11-19T12:36:38;25.77;;;5.77;;
20488;SDS011;10403;54.092;12.122;2023-11-19T12:39:06;26.60;;;4.70;;
20488;SDS011;10403;54.092;12.122;2023-11-19T12:41:48;24.43;;;5.10;;
20488;SDS011;10403;54.092;12.122;2023-11-19T12:44:17;25.10;;;4.63;;
20488;SDS011;10403;54.092;12.122;2023-11-19T12:46:45;29.60;;;6.43;;
20488;SDS011;10403;54.092;12.122;2023-11-19T12:49:12;24.17;;;5.17;;
20488;SDS011;10403;54.092;12.122;2023-11-19T12:51:40;23.73;;;5.43;;
20488;SDS011;10403;54.092;12.122;2023-11-19T12:54:07;21.17;;;5.03;;
20488;SDS011;10403;54.092;12.122;2023-11-19T12:56:35;28.87;;;5.17;;
20488;SDS011;10403;54.092;12.122;2023-11-19T12:59:11;29.73;;;5.90;;
20488;SDS011;10403;54.092;12.122;2023-11-19T13:01:39;25.97;;;5.47;;
20488;SDS011;10403;54.092;12.122;2023-11-19T13:04:17;36.07;;;5.93;;
20488;SDS011;10403;54.092;12.122;2023-11-19T13:06:45;31.23;;;5.63;;
20488;SDS011;10403;54.092;12.122;2023-11-19T13:09:30;23.37;;;5.17;;
20488;SDS011;10403;54.092;12.122;2023-11-19T13:11:58;33.23;;;5.53;;
20488;SDS011;10403;54.092;12.122;2023-11-19T13:14:36;26.23;;;4.53;;
20488;SDS011;10403;54.092;12.122;2023-11-19T13:17:08;28.63;;;5.10;;
20488;SDS011;10403;54.092;12.122;2023-11-19T13:19:39;28.43;;;4.97;;
20488;SDS011;10403;54.092;12.122;2023-11-19T13:22:07;27.13;;;4.80;;
20488;SDS011;10403;54.092;12.122;2023-11-19T13:24:34;24.60;;;4.47;;
20488;SDS011;10403;54.092;12.122;2023-11-19T13:27:02;19.53;;;4.80;;
20488;SDS011;10403;54.092;12.122;2023-11-19T13:29:29;24.70;;;4.30;;
20488;SDS011;10403;54.092;12.122;2023-11-19T13:31:58;21.50;;;4.73;;
20488;SDS011;10403;54.092;12.122;2023-11-19T13:34:26;22.20;;;4.67;;
20488;SDS011;10403;54.092;12.122;2023-11-19T13:36:53;22.77;;;4.37;;
20488;SDS011;10403;54.092;12.122;2023-11-19T13:39:21;22.33;;;4.57;;
20488;SDS011;10403;54.092;12.122;2023-11-19T13:41:50;17.63;;;3.83;;
20488;SDS011;10403;54.092;12.122;2023-11-19T13:44:17;22.60;;;4.47;;
20488;SDS011;10403;54.092;12.122;2023-11-19T13:46:45;20.50;;;3.70;;
20488;SDS011;10403;54.092;12.122;2023-11-19T13:49:13;23.73;;;5.07;;
20488;SDS011;10403;54.092;12.122;2023-11-19T13:51:41;17.53;;;3.97;;
20488;SDS011;10403;54.092;12.122;2023-11-19T13:54:09;18.67;;;4.80;;
20488;SDS011;10403;54.092;12.122;2023-11-19T13:56:36;20.07;;;4.27;;
20488;SDS011;10403;54.092;12.122;2023-11-19T13:59:03;25.50;;;4.60;;
20488;SDS011;10403;54.092;12.122;2023-11-19T14:01:31;20.63;;;4.97;;
20488;SDS011;10403;54.092;12.122;2023-11-19T14:03:58;25.17;;;4.87;;
20488;SDS011;10403;54.092;12.122;2023-11-19T14:06:25;25.93;;;5.60;;
20488;SDS011;10403;54.092;12.122;2023-11-19T14:08:53;21.27;;;4.63;;
20488;SDS011;10403;54.092;12.122;2023-11-19T14:11:20;20.07;;;4.50;;
20488;SDS011;10403;54.092;12.122;2023-11-19T14:13:47;32.70;;;5.40;;
20488;SDS011;10403;54.092;12.122;2023-11-19T14:16:15;20.37;;;4.13;;
20488;SDS011;10403;54.092;12.122;2023-11-19T14:18:43;24.77;;;4.77;;
20488;SDS011;10403;54.092;12.122;2023-11-19T14:21:10;21.40;;;4.10;;
20488;SDS011;10403;54.092;12.122;2023-11-19T14:23:37;20.63;;;4.40;;
20488;SDS011;10403;54.092;12.122;2023-11-19T14:26:05;19.47;;;4.73;;
20488;SDS011;10403;54.092;12.122;2023-11-19T14:28:32;20.03;;;4.13;;
20488;SDS011;10403;54.092;12.122;2023-11-19T14:31:00;20.87;;;4.23;;
20488;SDS011;10403;54.092;12.122;2023-11-19T14:33:27;19.37;;;4.10;;
20488;SDS011;10403;54.092;12.122;2023-11-19T14:35:55;20.43;;;4.43;;
20488;SDS011;10403;54.092;12.122;2023-11-19T14:38:22;21.60;;;5.57;;
20488;SDS011;10403;54.092;12.122;2023-11-19T14:40:49;21.80;;;5.30;;
20488;SDS011;10403;54.092;12.122;2023-11-19T14:43:16;23.13;;;4.63;;
20488;SDS011;10403;54.092;12.122;2023-11-19T14:45:44;21.50;;;4.97;;
20488;SDS011;10403;54.092;12.122;2023-11-19T14:48:16;27.27;;;5.33;;
20488;SDS011;10403;54.092;12.122;2023-11-19T14:50:44;25.70;;;6.97;;
20488;SDS011;10403;54.092;12.122;2023-11-19T14:53:12;24.00;;;5.40;;
20488;SDS011;10403;54.092;12.122;2023-11-19T14:55:39;29.43;;;5.80;;